sensor_id;sensor_type;location;lat;lon;timestamp;P1;durP1;ratioP1;P2;durP2;ratioP2
37231;SDS011;23125;48.156;15.954;2023-01-19T00:01:18;9.52;;;6.25;;
37231;SDS011;23125;48.156;15.954;2023-01-19T00:03:44;7.13;;;5.05;;
37231;SDS011;23125;48.156;15.954;2023-01-19T00:06:10;8.95;;;6.40;;
37231;SDS011;23125;48.156;15.954;2023-01-19T00:08:36;7.32;;;5.18;;
37231;SDS011;23125;48.156;15.954;2023-01-19T00:11:03;8.63;;;4.57;;
37231;SDS011;23125;48.156;15.954;2023-01-19T00:13:29;6.90;;;4.43;;
37231;SDS011;23125;48.156;15.954;2023-01-19T00:15:55;6.65;;;4.97;;
37231;SDS011;23125;48.156;15.954;2023-01-19T00:18:21;5.90;;;4.80;;
37231;SDS011;23125;48.156;15.954;2023-01-19T00:20:47;8.02;;;4.80;;
37231;SDS011;23125;48.156;15.954;2023-01-19T00:23:14;6.32;;;5.00;;
37231;SDS011;23125;48.156;15.954;2023-01-19T00:25:40;6.25;;;4.75;;
37231;SDS011;23125;48.156;15.954;2023-01-19T00:28:11;6.40;;;5.18;;
37231;SDS011;23125;48.156;15.954;2023-01-19T00:30:39;6.07;;;4.50;;
37231;SDS011;23125;48.156;15.954;2023-01-19T00:33:06;6.85;;;4.90;;
37231;SDS011;23125;48.156;15.954;2023-01-19T00:35:33;7.90;;;4.43;;
37231;SDS011;23125;48.156;15.954;2023-01-19T00:38:00;7.30;;;4.78;;
37231;SDS011;23125;48.156;15.954;2023-01-19T00:40:27;7.70;;;4.82;;
37231;SDS011;23125;48.156;15.954;2023-01-19T00:42:53;8.77;;;5.82;;
37231;SDS011;23125;48.156;15.954;2023-01-19T00:45:20;7.05;;;4.57;;
37231;SDS011;23125;48.156;15.954;2023-01-19T00:47:48;8.43;;;5.93;;
37231;SDS011;23125;48.156;15.954;2023-01-19T00:50:21;17.50;;;8.65;;
37231;SDS011;23125;48.156;15.954;2023-01-19T00:52:52;12.65;;;7.72;;
37231;SDS011;23125;48.156;15.954;2023-01-19T00:55:19;22.98;;;9.73;;
37231;SDS011;23125;48.156;15.954;2023-01-19T00:57:46;32.17;;;12.73;;
37231;SDS011;23125;48.156;15.954;2023-01-19T01:00:13;14.10;;;7.95;;
37231;SDS011;23125;48.156;15.954;2023-01-19T01:02:41;8.75;;;5.07;;
37231;SDS011;23125;48.156;15.954;2023-01-19T01:05:08;7.57;;;4.82;;
37231;SDS011;23125;48.156;15.954;2023-01-19T01:07:35;6.63;;;4.68;;
37231;SDS011;23125;48.156;15.954;2023-01-19T01:10:08;5.47;;;4.18;;
37231;SDS011;23125;48.156;15.954;2023-01-19T01:12:36;7.32;;;5.10;;
37231;SDS011;23125;48.156;15.954;2023-01-19T01:15:03;7.05;;;4.78;;
37231;SDS011;23125;48.156;15.954;2023-01-19T01:17:31;6.82;;;4.72;;
37231;SDS011;23125;48.156;15.954;2023-01-19T01:19:56;7.63;;;5.20;;
37231;SDS011;23125;48.156;15.954;2023-01-19T01:22:23;9.05;;;4.72;;
37231;SDS011;23125;48.156;15.954;2023-01-19T01:24:49;6.80;;;5.13;;
37231;SDS011;23125;48.156;15.954;2023-01-19T01:27:15;7.45;;;5.07;;
37231;SDS011;23125;48.156;15.954;2023-01-19T01:29:41;8.40;;;5.53;;
37231;SDS011;23125;48.156;15.954;2023-01-19T01:32:13;6.45;;;5.00;;
37231;SDS011;23125;48.156;15.954;2023-01-19T01:34:39;6.68;;;4.85;;
37231;SDS011;23125;48.156;15.954;2023-01-19T01:37:06;6.70;;;5.43;;
37231;SDS011;23125;48.156;15.954;2023-01-19T01:39:33;6.35;;;4.57;;
37231;SDS011;23125;48.156;15.954;2023-01-19T01:42:02;7.30;;;5.32;;
37231;SDS011;23125;48.156;15.954;2023-01-19T01:49:48;6.80;;;5.15;;
37231;SDS011;23125;48.156;15.954;2023-01-19T01:52:22;7.57;;;5.25;;
37231;SDS011;23125;48.156;15.954;2023-01-19T01:54:53;6.65;;;5.25;;
37231;SDS011;23125;48.156;15.954;2023-01-19T01:57:20;7.97;;;5.70;;
37231;SDS011;23125;48.156;15.954;2023-01-19T01:59:47;6.18;;;5.03;;
37231;SDS011;23125;48.156;15.954;2023-01-19T02:02:18;7.70;;;5.40;;
37231;SDS011;23125;48.156;15.954;2023-01-19T02:05:16;7.03;;;4.47;;
37231;SDS011;23125;48.156;15.954;2023-01-19T02:10:31;7.68;;;5.20;;
37231;SDS011;23125;48.156;15.954;2023-01-19T02:13:17;8.32;;;5.60;;
37231;SDS011;23125;48.156;15.954;2023-01-19T02:15:57;7.03;;;5.20;;
37231;SDS011;23125;48.156;15.954;2023-01-19T02:18:26;9.73;;;5.82;;
37231;SDS011;23125;48.156;15.954;2023-01-19T02:26:19;7.40;;;4.85;;
37231;SDS011;23125;48.156;15.954;2023-01-19T02:28:48;8.55;;;5.15;;
37231;SDS011;23125;48.156;15.954;2023-01-19T02:31:22;12.68;;;7.78;;
37231;SDS011;23125;48.156;15.954;2023-01-19T02:33:48;22.70;;;10.30;;
37231;SDS011;23125;48.156;15.954;2023-01-19T02:36:15;13.30;;;7.95;;
37231;SDS011;23125;48.156;15.954;2023-01-19T02:38:45;29.15;;;12.55;;
37231;SDS011;23125;48.156;15.954;2023-01-19T02:41:14;27.25;;;12.70;;
37231;SDS011;23125;48.156;15.954;2023-01-19T02:43:44;17.77;;;10.68;;
37231;SDS011;23125;48.156;15.954;2023-01-19T02:46:13;13.75;;;9.25;;
37231;SDS011;23125;48.156;15.954;2023-01-19T02:48:42;10.55;;;6.80;;
37231;SDS011;23125;48.156;15.954;2023-01-19T02:51:12;13.32;;;8.23;;
37231;SDS011;23125;48.156;15.954;2023-01-19T02:54:32;9.88;;;6.53;;
37231;SDS011;23125;48.156;15.954;2023-01-19T03:15:01;10.20;;;7.05;;
37231;SDS011;23125;48.156;15.954;2023-01-19T03:17:35;11.45;;;8.23;;
37231;SDS011;23125;48.156;15.954;2023-01-19T03:20:02;10.07;;;7.18;;
37231;SDS011;23125;48.156;15.954;2023-01-19T03:22:31;10.60;;;7.17;;
37231;SDS011;23125;48.156;15.954;2023-01-19T03:24:58;15.15;;;9.43;;
37231;SDS011;23125;48.156;15.954;2023-01-19T03:27:27;11.65;;;8.20;;
37231;SDS011;23125;48.156;15.954;2023-01-19T03:29:58;12.60;;;8.02;;
37231;SDS011;23125;48.156;15.954;2023-01-19T03:32:35;13.27;;;7.60;;
37231;SDS011;23125;48.156;15.954;2023-01-19T03:35:07;10.73;;;7.72;;
37231;SDS011;23125;48.156;15.954;2023-01-19T03:37:38;10.18;;;6.70;;
37231;SDS011;23125;48.156;15.954;2023-01-19T03:40:07;12.70;;;8.27;;
37231;SDS011;23125;48.156;15.954;2023-01-19T03:42:34;14.43;;;9.23;;
37231;SDS011;23125;48.156;15.954;2023-01-19T03:45:01;12.85;;;8.60;;
37231;SDS011;23125;48.156;15.954;2023-01-19T03:47:28;10.63;;;7.78;;
37231;SDS011;23125;48.156;15.954;2023-01-19T03:49:55;10.85;;;7.03;;
37231;SDS011;23125;48.156;15.954;2023-01-19T03:52:26;10.80;;;7.40;;
37231;SDS011;23125;48.156;15.954;2023-01-19T03:54:53;11.98;;;7.95;;
37231;SDS011;23125;48.156;15.954;2023-01-19T03:57:20;11.80;;;9.15;;
37231;SDS011;23125;48.156;15.954;2023-01-19T03:59:46;14.07;;;8.95;;
37231;SDS011;23125;48.156;15.954;2023-01-19T04:02:12;12.45;;;9.18;;
37231;SDS011;23125;48.156;15.954;2023-01-19T04:04:39;11.05;;;7.65;;
37231;SDS011;23125;48.156;15.954;2023-01-19T04:07:04;14.35;;;9.90;;
37231;SDS011;23125;48.156;15.954;2023-01-19T04:09:31;14.30;;;9.50;;
37231;SDS011;23125;48.156;15.954;2023-01-19T04:11:57;13.60;;;8.40;;
37231;SDS011;23125;48.156;15.954;2023-01-19T04:14:22;13.63;;;8.75;;
37231;SDS011;23125;48.156;15.954;2023-01-19T04:16:48;13.35;;;8.65;;
37231;SDS011;23125;48.156;15.954;2023-01-19T04:19:14;14.15;;;9.65;;
37231;SDS011;23125;48.156;15.954;2023-01-19T04:21:40;13.38;;;8.18;;
37231;SDS011;23125;48.156;15.954;2023-01-19T04:24:06;11.73;;;8.30;;
37231;SDS011;23125;48.156;15.954;2023-01-19T04:26:33;10.77;;;7.97;;
37231;SDS011;23125;48.156;15.954;2023-01-19T04:28:59;12.98;;;8.18;;
37231;SDS011;23125;48.156;15.954;2023-01-19T04:31:25;15.02;;;8.65;;
37231;SDS011;23125;48.156;15.954;2023-01-19T04:33:51;13.07;;;9.10;;
37231;SDS011;23125;48.156;15.954;2023-01-19T04:36:17;13.70;;;8.48;;
37231;SDS011;23125;48.156;15.954;2023-01-19T04:38:43;15.70;;;10.00;;
37231;SDS011;23125;48.156;15.954;2023-01-19T04:41:10;13.68;;;8.73;;
37231;SDS011;23125;48.156;15.954;2023-01-19T04:43:36;17.10;;;9.88;;
37231;SDS011;23125;48.156;15.954;2023-01-19T04:46:02;11.65;;;8.43;;
37231;SDS011;23125;48.156;15.954;2023-01-19T04:48:28;16.10;;;10.55;;
37231;SDS011;23125;48.156;15.954;2023-01-19T04:50:54;12.70;;;9.10;;
37231;SDS011;23125;48.156;15.954;2023-01-19T04:53:20;11.15;;;7.85;;
37231;SDS011;23125;48.156;15.954;2023-01-19T04:55:45;12.65;;;8.75;;
37231;SDS011;23125;48.156;15.954;2023-01-19T04:58:11;12.43;;;8.43;;
37231;SDS011;23125;48.156;15.954;2023-01-19T05:00:37;13.45;;;8.82;;
37231;SDS011;23125;48.156;15.954;2023-01-19T05:03:03;14.85;;;10.30;;
37231;SDS011;23125;48.156;15.954;2023-01-19T05:05:29;20.70;;;10.55;;
37231;SDS011;23125;48.156;15.954;2023-01-19T05:07:57;26.73;;;13.70;;
37231;SDS011;23125;48.156;15.954;2023-01-19T05:10:23;26.58;;;13.30;;
37231;SDS011;23125;48.156;15.954;2023-01-19T05:12:49;33.33;;;16.25;;
37231;SDS011;23125;48.156;15.954;2023-01-19T05:15:15;35.53;;;17.05;;
37231;SDS011;23125;48.156;15.954;2023-01-19T05:17:41;19.27;;;11.65;;
37231;SDS011;23125;48.156;15.954;2023-01-19T05:20:08;27.98;;;15.68;;
37231;SDS011;23125;48.156;15.954;2023-01-19T05:22:35;20.83;;;12.60;;
37231;SDS011;23125;48.156;15.954;2023-01-19T05:25:03;17.23;;;11.75;;
37231;SDS011;23125;48.156;15.954;2023-01-19T05:29:59;16.98;;;11.23;;
37231;SDS011;23125;48.156;15.954;2023-01-19T05:32:25;15.60;;;10.88;;
37231;SDS011;23125;48.156;15.954;2023-01-19T05:34:51;13.90;;;9.55;;
37231;SDS011;23125;48.156;15.954;2023-01-19T05:37:16;16.00;;;9.90;;
37231;SDS011;23125;48.156;15.954;2023-01-19T05:39:42;17.02;;;11.07;;
37231;SDS011;23125;48.156;15.954;2023-01-19T05:42:08;15.05;;;10.20;;
37231;SDS011;23125;48.156;15.954;2023-01-19T05:44:34;15.02;;;10.73;;
37231;SDS011;23125;48.156;15.954;2023-01-19T05:47:00;15.73;;;10.70;;
37231;SDS011;23125;48.156;15.954;2023-01-19T05:49:26;19.50;;;12.40;;
37231;SDS011;23125;48.156;15.954;2023-01-19T05:51:52;16.52;;;11.27;;
37231;SDS011;23125;48.156;15.954;2023-01-19T05:54:18;14.93;;;10.35;;
37231;SDS011;23125;48.156;15.954;2023-01-19T05:56:44;15.60;;;10.27;;
37231;SDS011;23125;48.156;15.954;2023-01-19T05:59:09;17.27;;;10.73;;
37231;SDS011;23125;48.156;15.954;2023-01-19T06:01:35;16.15;;;11.00;;
37231;SDS011;23125;48.156;15.954;2023-01-19T06:04:03;16.20;;;11.25;;
37231;SDS011;23125;48.156;15.954;2023-01-19T06:06:30;15.63;;;10.40;;
37231;SDS011;23125;48.156;15.954;2023-01-19T06:08:56;19.30;;;11.95;;
37231;SDS011;23125;48.156;15.954;2023-01-19T06:11:22;19.65;;;11.95;;
37231;SDS011;23125;48.156;15.954;2023-01-19T06:13:47;17.98;;;11.38;;
37231;SDS011;23125;48.156;15.954;2023-01-19T06:16:13;19.08;;;12.68;;
37231;SDS011;23125;48.156;15.954;2023-01-19T06:18:39;16.95;;;11.98;;
37231;SDS011;23125;48.156;15.954;2023-01-19T06:21:06;16.65;;;11.07;;
37231;SDS011;23125;48.156;15.954;2023-01-19T06:23:33;17.30;;;11.48;;
37231;SDS011;23125;48.156;15.954;2023-01-19T06:26:00;15.75;;;10.55;;
37231;SDS011;23125;48.156;15.954;2023-01-19T06:28:27;20.13;;;12.30;;
37231;SDS011;23125;48.156;15.954;2023-01-19T06:30:53;19.17;;;12.20;;
37231;SDS011;23125;48.156;15.954;2023-01-19T06:33:20;19.23;;;11.70;;
37231;SDS011;23125;48.156;15.954;2023-01-19T06:35:47;19.58;;;11.63;;
37231;SDS011;23125;48.156;15.954;2023-01-19T06:38:14;19.83;;;11.25;;
37231;SDS011;23125;48.156;15.954;2023-01-19T06:40:43;17.60;;;11.05;;
37231;SDS011;23125;48.156;15.954;2023-01-19T06:43:19;21.05;;;12.23;;
37231;SDS011;23125;48.156;15.954;2023-01-19T06:45:46;17.38;;;10.95;;
37231;SDS011;23125;48.156;15.954;2023-01-19T06:48:12;19.98;;;12.02;;
37231;SDS011;23125;48.156;15.954;2023-01-19T06:50:38;19.65;;;11.82;;
37231;SDS011;23125;48.156;15.954;2023-01-19T06:53:04;18.52;;;11.75;;
37231;SDS011;23125;48.156;15.954;2023-01-19T06:55:30;19.50;;;12.18;;
37231;SDS011;23125;48.156;15.954;2023-01-19T06:57:56;18.50;;;11.15;;
37231;SDS011;23125;48.156;15.954;2023-01-19T07:00:23;17.70;;;11.73;;
37231;SDS011;23125;48.156;15.954;2023-01-19T07:02:50;19.13;;;11.63;;
37231;SDS011;23125;48.156;15.954;2023-01-19T07:05:15;27.42;;;14.18;;
37231;SDS011;23125;48.156;15.954;2023-01-19T07:07:41;34.58;;;18.10;;
37231;SDS011;23125;48.156;15.954;2023-01-19T07:10:09;35.50;;;18.83;;
37231;SDS011;23125;48.156;15.954;2023-01-19T07:12:37;29.75;;;16.40;;
37231;SDS011;23125;48.156;15.954;2023-01-19T07:15:04;53.65;;;23.73;;
37231;SDS011;23125;48.156;15.954;2023-01-19T07:17:30;31.73;;;16.65;;
37231;SDS011;23125;48.156;15.954;2023-01-19T07:19:56;38.40;;;18.80;;
37231;SDS011;23125;48.156;15.954;2023-01-19T07:22:22;33.25;;;18.40;;
37231;SDS011;23125;48.156;15.954;2023-01-19T07:24:48;21.20;;;13.15;;
37231;SDS011;23125;48.156;15.954;2023-01-19T07:27:14;24.73;;;15.73;;
37231;SDS011;23125;48.156;15.954;2023-01-19T07:29:40;21.73;;;12.73;;
37231;SDS011;23125;48.156;15.954;2023-01-19T07:32:06;21.63;;;12.85;;
37231;SDS011;23125;48.156;15.954;2023-01-19T07:34:32;24.77;;;14.60;;
37231;SDS011;23125;48.156;15.954;2023-01-19T07:36:58;21.45;;;14.18;;
37231;SDS011;23125;48.156;15.954;2023-01-19T07:39:24;19.08;;;11.88;;
37231;SDS011;23125;48.156;15.954;2023-01-19T07:41:50;22.60;;;14.07;;
37231;SDS011;23125;48.156;15.954;2023-01-19T07:44:17;25.95;;;14.15;;
37231;SDS011;23125;48.156;15.954;2023-01-19T07:46:43;22.13;;;13.48;;
37231;SDS011;23125;48.156;15.954;2023-01-19T07:49:08;23.17;;;14.35;;
37231;SDS011;23125;48.156;15.954;2023-01-19T07:51:36;21.73;;;13.95;;
37231;SDS011;23125;48.156;15.954;2023-01-19T07:54:01;28.05;;;16.88;;
37231;SDS011;23125;48.156;15.954;2023-01-19T07:56:27;26.20;;;15.48;;
37231;SDS011;23125;48.156;15.954;2023-01-19T07:58:55;29.05;;;14.20;;
37231;SDS011;23125;48.156;15.954;2023-01-19T08:01:21;35.20;;;16.67;;
37231;SDS011;23125;48.156;15.954;2023-01-19T08:03:47;43.38;;;19.10;;
37231;SDS011;23125;48.156;15.954;2023-01-19T08:06:18;20.55;;;13.55;;
37231;SDS011;23125;48.156;15.954;2023-01-19T08:08:46;20.73;;;12.52;;
37231;SDS011;23125;48.156;15.954;2023-01-19T08:11:12;21.13;;;12.20;;
37231;SDS011;23125;48.156;15.954;2023-01-19T08:13:39;22.83;;;13.98;;
37231;SDS011;23125;48.156;15.954;2023-01-19T08:16:05;23.33;;;13.77;;
37231;SDS011;23125;48.156;15.954;2023-01-19T08:18:32;21.20;;;12.77;;
37231;SDS011;23125;48.156;15.954;2023-01-19T08:20:58;23.05;;;14.15;;
37231;SDS011;23125;48.156;15.954;2023-01-19T08:23:24;22.20;;;13.40;;
37231;SDS011;23125;48.156;15.954;2023-01-19T08:25:52;20.17;;;13.32;;
37231;SDS011;23125;48.156;15.954;2023-01-19T08:28:18;22.13;;;14.65;;
37231;SDS011;23125;48.156;15.954;2023-01-19T08:30:44;23.40;;;13.93;;
37231;SDS011;23125;48.156;15.954;2023-01-19T08:33:18;19.88;;;13.43;;
37231;SDS011;23125;48.156;15.954;2023-01-19T08:35:48;22.23;;;13.52;;
37231;SDS011;23125;48.156;15.954;2023-01-19T08:38:16;22.42;;;13.48;;
37231;SDS011;23125;48.156;15.954;2023-01-19T08:40:42;21.83;;;13.18;;
37231;SDS011;23125;48.156;15.954;2023-01-19T08:43:12;24.10;;;14.77;;
37231;SDS011;23125;48.156;15.954;2023-01-19T08:45:40;21.85;;;13.35;;
37231;SDS011;23125;48.156;15.954;2023-01-19T08:48:13;38.78;;;20.45;;
37231;SDS011;23125;48.156;15.954;2023-01-19T08:50:40;46.33;;;22.42;;
37231;SDS011;23125;48.156;15.954;2023-01-19T08:53:06;45.08;;;20.73;;
37231;SDS011;23125;48.156;15.954;2023-01-19T08:55:35;49.22;;;23.92;;
37231;SDS011;23125;48.156;15.954;2023-01-19T08:58:02;28.08;;;17.02;;
37231;SDS011;23125;48.156;15.954;2023-01-19T09:00:29;22.75;;;14.38;;
37231;SDS011;23125;48.156;15.954;2023-01-19T09:02:57;22.98;;;14.38;;
37231;SDS011;23125;48.156;15.954;2023-01-19T09:05:28;21.25;;;13.88;;
37231;SDS011;23125;48.156;15.954;2023-01-19T09:08:01;22.73;;;14.85;;
37231;SDS011;23125;48.156;15.954;2023-01-19T09:10:28;21.73;;;13.32;;
37231;SDS011;23125;48.156;15.954;2023-01-19T09:13:09;19.95;;;12.32;;
37231;SDS011;23125;48.156;15.954;2023-01-19T09:15:39;20.52;;;13.98;;
37231;SDS011;23125;48.156;15.954;2023-01-19T09:18:08;20.70;;;13.23;;
37231;SDS011;23125;48.156;15.954;2023-01-19T09:20:40;21.45;;;13.50;;
37231;SDS011;23125;48.156;15.954;2023-01-19T09:23:08;19.85;;;12.50;;
37231;SDS011;23125;48.156;15.954;2023-01-19T09:25:35;22.83;;;13.95;;
37231;SDS011;23125;48.156;15.954;2023-01-19T09:28:03;20.10;;;13.40;;
37231;SDS011;23125;48.156;15.954;2023-01-19T09:30:31;23.52;;;14.50;;
37231;SDS011;23125;48.156;15.954;2023-01-19T09:33:00;22.65;;;14.40;;
37231;SDS011;23125;48.156;15.954;2023-01-19T09:35:35;16.90;;;10.95;;
37231;SDS011;23125;48.156;15.954;2023-01-19T09:38:03;21.75;;;12.50;;
37231;SDS011;23125;48.156;15.954;2023-01-19T09:40:31;19.73;;;12.45;;
37231;SDS011;23125;48.156;15.954;2023-01-19T09:45:47;18.20;;;11.50;;
37231;SDS011;23125;48.156;15.954;2023-01-19T09:48:56;21.27;;;12.60;;
37231;SDS011;23125;48.156;15.954;2023-01-19T09:51:10;22.05;;;13.52;;
37231;SDS011;23125;48.156;15.954;2023-01-19T09:56:19;19.40;;;12.05;;
37231;SDS011;23125;48.156;15.954;2023-01-19T09:58:46;17.38;;;12.02;;
37231;SDS011;23125;48.156;15.954;2023-01-19T10:01:31;19.73;;;12.70;;
37231;SDS011;23125;48.156;15.954;2023-01-19T10:04:07;17.65;;;11.75;;
37231;SDS011;23125;48.156;15.954;2023-01-19T10:07:22;20.08;;;11.98;;
37231;SDS011;23125;48.156;15.954;2023-01-19T10:10:09;21.65;;;12.52;;
37231;SDS011;23125;48.156;15.954;2023-01-19T10:17:55;18.33;;;12.25;;
37231;SDS011;23125;48.156;15.954;2023-01-19T10:20:28;19.08;;;12.10;;
37231;SDS011;23125;48.156;15.954;2023-01-19T10:23:09;18.95;;;12.60;;
37231;SDS011;23125;48.156;15.954;2023-01-19T10:25:49;19.88;;;11.80;;
37231;SDS011;23125;48.156;15.954;2023-01-19T10:28:16;19.67;;;12.90;;
37231;SDS011;23125;48.156;15.954;2023-01-19T10:30:47;18.33;;;11.25;;
37231;SDS011;23125;48.156;15.954;2023-01-19T10:33:14;16.60;;;11.27;;
37231;SDS011;23125;48.156;15.954;2023-01-19T10:35:39;17.67;;;11.82;;
37231;SDS011;23125;48.156;15.954;2023-01-19T10:38:05;18.15;;;12.27;;
37231;SDS011;23125;48.156;15.954;2023-01-19T10:40:41;15.27;;;10.00;;
37231;SDS011;23125;48.156;15.954;2023-01-19T10:46:15;16.88;;;10.77;;
37231;SDS011;23125;48.156;15.954;2023-01-19T10:48:46;17.80;;;11.85;;
37231;SDS011;23125;48.156;15.954;2023-01-19T10:51:14;17.85;;;11.40;;
37231;SDS011;23125;48.156;15.954;2023-01-19T10:53:41;16.75;;;10.27;;
37231;SDS011;23125;48.156;15.954;2023-01-19T10:56:21;19.10;;;12.40;;
37231;SDS011;23125;48.156;15.954;2023-01-19T10:58:57;20.13;;;12.23;;
37231;SDS011;23125;48.156;15.954;2023-01-19T11:01:27;18.83;;;12.35;;
37231;SDS011;23125;48.156;15.954;2023-01-19T11:03:55;22.52;;;13.75;;
37231;SDS011;23125;48.156;15.954;2023-01-19T11:06:30;26.55;;;14.70;;
37231;SDS011;23125;48.156;15.954;2023-01-19T11:11:53;19.27;;;11.43;;
37231;SDS011;23125;48.156;15.954;2023-01-19T11:14:21;18.58;;;11.13;;
37231;SDS011;23125;48.156;15.954;2023-01-19T11:16:52;17.75;;;11.07;;
37231;SDS011;23125;48.156;15.954;2023-01-19T11:19:23;16.77;;;12.00;;
37231;SDS011;23125;48.156;15.954;2023-01-19T11:21:52;18.05;;;11.85;;
37231;SDS011;23125;48.156;15.954;2023-01-19T11:24:40;16.63;;;11.73;;
37231;SDS011;23125;48.156;15.954;2023-01-19T11:27:08;17.63;;;12.05;;
37231;SDS011;23125;48.156;15.954;2023-01-19T11:29:34;17.83;;;12.25;;
37231;SDS011;23125;48.156;15.954;2023-01-19T11:32:11;16.13;;;11.30;;
37231;SDS011;23125;48.156;15.954;2023-01-19T11:34:44;16.63;;;12.20;;
37231;SDS011;23125;48.156;15.954;2023-01-19T11:39:48;15.98;;;10.68;;
37231;SDS011;23125;48.156;15.954;2023-01-19T11:42:16;15.70;;;10.45;;
37231;SDS011;23125;48.156;15.954;2023-01-19T11:44:51;18.80;;;11.35;;
37231;SDS011;23125;48.156;15.954;2023-01-19T11:47:40;16.35;;;10.63;;
37231;SDS011;23125;48.156;15.954;2023-01-19T11:50:12;16.98;;;11.55;;
37231;SDS011;23125;48.156;15.954;2023-01-19T11:52:51;18.75;;;11.50;;
37231;SDS011;23125;48.156;15.954;2023-01-19T11:58:08;18.48;;;11.15;;
37231;SDS011;23125;48.156;15.954;2023-01-19T12:03:43;42.40;;;19.63;;
37231;SDS011;23125;48.156;15.954;2023-01-19T12:06:17;23.55;;;13.70;;
37231;SDS011;23125;48.156;15.954;2023-01-19T12:08:47;34.60;;;17.95;;
37231;SDS011;23125;48.156;15.954;2023-01-19T12:11:34;21.83;;;13.40;;
37231;SDS011;23125;48.156;15.954;2023-01-19T12:14:13;23.02;;;13.73;;
37231;SDS011;23125;48.156;15.954;2023-01-19T12:16:47;19.30;;;11.55;;
37231;SDS011;23125;48.156;15.954;2023-01-19T12:19:18;19.92;;;12.15;;
37231;SDS011;23125;48.156;15.954;2023-01-19T12:21:49;17.75;;;10.73;;
37231;SDS011;23125;48.156;15.954;2023-01-19T12:24:26;15.32;;;11.27;;
37231;SDS011;23125;48.156;15.954;2023-01-19T12:27:00;15.00;;;10.65;;
37231;SDS011;23125;48.156;15.954;2023-01-19T12:29:38;18.75;;;10.82;;
37231;SDS011;23125;48.156;15.954;2023-01-19T12:34:44;15.13;;;8.73;;
37231;SDS011;23125;48.156;15.954;2023-01-19T12:39:59;15.90;;;9.80;;
37231;SDS011;23125;48.156;15.954;2023-01-19T12:42:30;15.27;;;9.55;;
37231;SDS011;23125;48.156;15.954;2023-01-19T12:45:07;14.02;;;9.68;;
37231;SDS011;23125;48.156;15.954;2023-01-19T12:47:48;14.98;;;10.05;;
37231;SDS011;23125;48.156;15.954;2023-01-19T12:50:16;15.77;;;9.18;;
37231;SDS011;23125;48.156;15.954;2023-01-19T12:52:49;14.48;;;9.05;;
37231;SDS011;23125;48.156;15.954;2023-01-19T12:55:26;13.77;;;9.70;;
37231;SDS011;23125;48.156;15.954;2023-01-19T13:18:44;17.23;;;10.27;;
37231;SDS011;23125;48.156;15.954;2023-01-19T13:21:13;25.10;;;12.55;;
37231;SDS011;23125;48.156;15.954;2023-01-19T13:23:51;18.00;;;10.18;;
37231;SDS011;23125;48.156;15.954;2023-01-19T13:28:54;18.88;;;9.52;;
37231;SDS011;23125;48.156;15.954;2023-01-19T13:31:36;15.70;;;8.93;;
37231;SDS011;23125;48.156;15.954;2023-01-19T13:34:09;15.57;;;8.95;;
37231;SDS011;23125;48.156;15.954;2023-01-19T13:36:40;14.52;;;8.95;;
37231;SDS011;23125;48.156;15.954;2023-01-19T13:39:12;17.30;;;9.52;;
37231;SDS011;23125;48.156;15.954;2023-01-19T13:41:46;13.27;;;8.73;;
37231;SDS011;23125;48.156;15.954;2023-01-19T13:44:20;13.32;;;8.50;;
37231;SDS011;23125;48.156;15.954;2023-01-19T13:46:50;14.90;;;8.80;;
37231;SDS011;23125;48.156;15.954;2023-01-19T13:54:31;16.60;;;9.48;;
37231;SDS011;23125;48.156;15.954;2023-01-19T13:56:57;14.50;;;10.13;;
37231;SDS011;23125;48.156;15.954;2023-01-19T13:59:23;12.48;;;8.85;;
37231;SDS011;23125;48.156;15.954;2023-01-19T14:01:49;12.75;;;9.00;;
37231;SDS011;23125;48.156;15.954;2023-01-19T14:04:31;16.30;;;10.23;;
37231;SDS011;23125;48.156;15.954;2023-01-19T14:06:59;14.27;;;9.57;;
37231;SDS011;23125;48.156;15.954;2023-01-19T14:09:31;16.08;;;9.52;;
37231;SDS011;23125;48.156;15.954;2023-01-19T14:12:13;16.35;;;8.82;;
37231;SDS011;23125;48.156;15.954;2023-01-19T14:14:42;15.50;;;9.85;;
37231;SDS011;23125;48.156;15.954;2023-01-19T14:19:51;16.13;;;10.10;;
37231;SDS011;23125;48.156;15.954;2023-01-19T14:22:19;18.02;;;11.45;;
37231;SDS011;23125;48.156;15.954;2023-01-19T14:24:46;19.70;;;12.20;;
37231;SDS011;23125;48.156;15.954;2023-01-19T14:27:21;17.27;;;10.30;;
37231;SDS011;23125;48.156;15.954;2023-01-19T14:29:49;24.20;;;11.90;;
37231;SDS011;23125;48.156;15.954;2023-01-19T14:32:19;21.77;;;10.70;;
37231;SDS011;23125;48.156;15.954;2023-01-19T14:37:29;33.58;;;15.60;;
37231;SDS011;23125;48.156;15.954;2023-01-19T14:42:33;19.30;;;12.48;;
37231;SDS011;23125;48.156;15.954;2023-01-19T14:45:33;21.40;;;11.95;;
37231;SDS011;23125;48.156;15.954;2023-01-19T14:48:11;28.10;;;13.13;;
37231;SDS011;23125;48.156;15.954;2023-01-19T14:50:41;31.20;;;15.93;;
37231;SDS011;23125;48.156;15.954;2023-01-19T14:53:18;26.83;;;13.38;;
37231;SDS011;23125;48.156;15.954;2023-01-19T14:58:20;26.50;;;12.80;;
37231;SDS011;23125;48.156;15.954;2023-01-19T15:00:49;45.03;;;20.25;;
37231;SDS011;23125;48.156;15.954;2023-01-19T15:03:19;19.92;;;11.13;;
37231;SDS011;23125;48.156;15.954;2023-01-19T15:05:49;19.33;;;10.15;;
37231;SDS011;23125;48.156;15.954;2023-01-19T15:08:29;19.17;;;11.13;;
37231;SDS011;23125;48.156;15.954;2023-01-19T15:11:04;23.15;;;11.52;;
37231;SDS011;23125;48.156;15.954;2023-01-19T15:13:40;21.63;;;11.57;;
37231;SDS011;23125;48.156;15.954;2023-01-19T15:16:08;20.42;;;11.60;;
37231;SDS011;23125;48.156;15.954;2023-01-19T15:18:34;27.70;;;13.10;;
37231;SDS011;23125;48.156;15.954;2023-01-19T15:21:01;23.48;;;11.85;;
37231;SDS011;23125;48.156;15.954;2023-01-19T15:23:30;15.70;;;9.63;;
37231;SDS011;23125;48.156;15.954;2023-01-19T15:28:24;18.90;;;9.80;;
37231;SDS011;23125;48.156;15.954;2023-01-19T15:30:49;21.15;;;11.10;;
37231;SDS011;23125;48.156;15.954;2023-01-19T15:33:21;14.80;;;10.00;;
37231;SDS011;23125;48.156;15.954;2023-01-19T15:35:49;14.52;;;9.40;;
37231;SDS011;23125;48.156;15.954;2023-01-19T15:38:15;12.27;;;8.70;;
37231;SDS011;23125;48.156;15.954;2023-01-19T15:40:46;12.48;;;8.50;;
37231;SDS011;23125;48.156;15.954;2023-01-19T15:43:12;12.40;;;7.97;;
37231;SDS011;23125;48.156;15.954;2023-01-19T15:45:55;15.13;;;9.65;;
37231;SDS011;23125;48.156;15.954;2023-01-19T15:48:26;16.45;;;8.93;;
37231;SDS011;23125;48.156;15.954;2023-01-19T15:50:52;14.38;;;8.13;;
37231;SDS011;23125;48.156;15.954;2023-01-19T15:53:19;14.85;;;9.10;;
37231;SDS011;23125;48.156;15.954;2023-01-19T15:55:51;13.02;;;8.40;;
37231;SDS011;23125;48.156;15.954;2023-01-19T15:58:21;12.63;;;8.50;;
37231;SDS011;23125;48.156;15.954;2023-01-19T16:00:56;11.15;;;8.30;;
37231;SDS011;23125;48.156;15.954;2023-01-19T16:03:24;12.07;;;8.52;;
37231;SDS011;23125;48.156;15.954;2023-01-19T16:05:50;17.75;;;8.65;;
37231;SDS011;23125;48.156;15.954;2023-01-19T16:08:16;13.10;;;8.20;;
37231;SDS011;23125;48.156;15.954;2023-01-19T16:10:42;12.52;;;8.73;;
37231;SDS011;23125;48.156;15.954;2023-01-19T16:13:09;13.27;;;8.43;;
37231;SDS011;23125;48.156;15.954;2023-01-19T16:15:36;12.57;;;7.80;;